sensor_id;sensor_type;location;lat;lon;timestamp;pressure;altitude;pressure_sealevel;temperature;humidity
44825;BME280;30542;47.928;2.138;2023-01-25T00:01:10;102136.63;;;19.27;45.75
44825;BME280;30542;47.928;2.138;2023-01-25T00:06:11;102128.44;;;19.22;45.86
44825;BME280;30542;47.928;2.138;2023-01-25T00:11:11;102129.31;;;19.16;45.78
44825;BME280;30542;47.928;2.138;2023-01-25T00:16:11;102118.03;;;19.07;45.65
44825;BME280;30542;47.928;2.138;2023-01-25T00:21:13;102120.50;;;19.09;45.70
44825;BME280;30542;47.928;2.138;2023-01-25T00:26:13;102117.66;;;19.04;45.94
44825;BME280;30542;47.928;2.138;2023-01-25T00:31:20;102110.28;;;18.99;46.30
44825;BME280;30542;47.928;2.138;2023-01-25T00:36:40;102090.44;;;18.82;45.92
44825;BME280;30542;47.928;2.138;2023-01-25T00:41:41;102090.03;;;18.78;46.03
44825;BME280;30542;47.928;2.138;2023-01-25T00:46:42;102100.28;;;18.88;46.30
44825;BME280;30542;47.928;2.138;2023-01-25T00:51:42;102097.84;;;18.80;46.21
44825;BME280;30542;47.928;2.138;2023-01-25T00:56:43;102090.25;;;18.77;46.22
44825;BME280;30542;47.928;2.138;2023-01-25T01:01:44;102105.88;;;18.80;46.36
44825;BME280;30542;47.928;2.138;2023-01-25T01:06:45;102093.97;;;18.76;46.27
44825;BME280;30542;47.928;2.138;2023-01-25T01:11:45;102095.22;;;18.67;46.58
44825;BME280;30542;47.928;2.138;2023-01-25T01:16:46;102093.13;;;18.69;46.78
44825;BME280;30542;47.928;2.138;2023-01-25T01:21:46;102099.28;;;18.69;46.41
44825;BME280;30542;47.928;2.138;2023-01-25T01:26:47;102098.88;;;18.66;46.33
44825;BME280;30542;47.928;2.138;2023-01-25T01:31:50;102092.34;;;18.61;46.69
44825;BME280;30542;47.928;2.138;2023-01-25T01:36:51;102097.66;;;18.61;46.80
44825;BME280;30542;47.928;2.138;2023-01-25T01:41:52;102099.13;;;18.57;46.56
44825;BME280;30542;47.928;2.138;2023-01-25T01:46:54;102096.09;;;18.54;46.38
44825;BME280;30542;47.928;2.138;2023-01-25T01:52:02;102101.41;;;18.54;46.39
44825;BME280;30542;47.928;2.138;2023-01-25T01:57:07;102101.19;;;18.55;46.55
44825;BME280;30542;47.928;2.138;2023-01-25T02:02:10;102099.34;;;18.62;46.53
44825;BME280;30542;47.928;2.138;2023-01-25T02:07:15;102089.47;;;18.70;45.90
44825;BME280;30542;47.928;2.138;2023-01-25T02:12:19;102089.44;;;18.76;45.87
44825;BME280;30542;47.928;2.138;2023-01-25T02:17:30;102088.00;;;18.80;45.86
44825;BME280;30542;47.928;2.138;2023-01-25T02:22:49;102089.44;;;18.83;45.71
44825;BME280;30542;47.928;2.138;2023-01-25T02:28:29;102080.38;;;18.84;45.05
44825;BME280;30542;47.928;2.138;2023-01-25T02:33:27;102083.84;;;18.91;44.65
44825;BME280;30542;47.928;2.138;2023-01-25T02:38:28;102075.38;;;18.94;44.80
44825;BME280;30542;47.928;2.138;2023-01-25T02:43:31;102083.94;;;19.09;44.54
44825;BME280;30542;47.928;2.138;2023-01-25T02:48:32;102077.13;;;19.13;44.37
44825;BME280;30542;47.928;2.138;2023-01-25T02:53:33;102090.41;;;19.27;44.04
44825;BME280;30542;47.928;2.138;2023-01-25T02:58:33;102095.47;;;19.35;43.64
44825;BME280;30542;47.928;2.138;2023-01-25T03:03:34;102088.44;;;19.41;43.38
44825;BME280;30542;47.928;2.138;2023-01-25T03:08:35;102089.44;;;19.46;43.37
44825;BME280;30542;47.928;2.138;2023-01-25T03:13:36;102094.72;;;19.53;43.17
44825;BME280;30542;47.928;2.138;2023-01-25T03:18:37;102086.66;;;19.59;43.09
44825;BME280;30542;47.928;2.138;2023-01-25T03:23:38;102088.13;;;19.62;43.24
44825;BME280;30542;47.928;2.138;2023-01-25T03:28:40;102074.34;;;19.58;42.86
44825;BME280;30542;47.928;2.138;2023-01-25T03:33:41;102080.03;;;19.69;43.15
44825;BME280;30542;47.928;2.138;2023-01-25T03:38:41;102068.31;;;19.70;43.09
44825;BME280;30542;47.928;2.138;2023-01-25T03:43:42;102068.03;;;19.78;42.84
44825;BME280;30542;47.928;2.138;2023-01-25T03:48:42;102079.91;;;19.82;42.93
44825;BME280;30542;47.928;2.138;2023-01-25T03:53:43;102069.84;;;19.84;42.40
44825;BME280;30542;47.928;2.138;2023-01-25T03:58:43;102067.31;;;19.89;42.69
44825;BME280;30542;47.928;2.138;2023-01-25T04:03:43;102061.97;;;19.89;42.55
44825;BME280;30542;47.928;2.138;2023-01-25T04:08:44;102068.50;;;19.93;42.22
44825;BME280;30542;47.928;2.138;2023-01-25T04:13:44;102060.25;;;19.95;42.38
44825;BME280;30542;47.928;2.138;2023-01-25T04:18:45;102064.34;;;19.97;42.30
44825;BME280;30542;47.928;2.138;2023-01-25T04:23:45;102058.56;;;20.00;42.24
44825;BME280;30542;47.928;2.138;2023-01-25T04:28:45;102055.66;;;20.02;42.17
44825;BME280;30542;47.928;2.138;2023-01-25T04:33:46;102053.00;;;20.02;42.18
44825;BME280;30542;47.928;2.138;2023-01-25T04:38:46;102049.88;;;20.05;42.13
44825;BME280;30542;47.928;2.138;2023-01-25T04:43:47;102051.88;;;20.09;41.91
44825;BME280;30542;47.928;2.138;2023-01-25T04:48:47;102048.97;;;20.11;42.01
44825;BME280;30542;47.928;2.138;2023-01-25T04:53:48;102046.91;;;20.13;41.90
44825;BME280;30542;47.928;2.138;2023-01-25T04:58:48;102048.53;;;20.14;41.97
44825;BME280;30542;47.928;2.138;2023-01-25T05:03:48;102041.34;;;20.15;41.87
44825;BME280;30542;47.928;2.138;2023-01-25T05:08:49;102041.94;;;20.17;41.95
44825;BME280;30542;47.928;2.138;2023-01-25T05:13:49;102038.22;;;20.18;41.71
44825;BME280;30542;47.928;2.138;2023-01-25T05:18:51;102045.19;;;20.19;41.71
44825;BME280;30542;47.928;2.138;2023-01-25T05:23:51;102045.19;;;20.19;41.85
44825;BME280;30542;47.928;2.138;2023-01-25T05:28:51;102048.09;;;20.17;41.77
44825;BME280;30542;47.928;2.138;2023-01-25T05:33:52;102048.47;;;20.21;41.56
44825;BME280;30542;47.928;2.138;2023-01-25T05:38:52;102044.75;;;20.22;41.59
44825;BME280;30542;47.928;2.138;2023-01-25T05:43:52;102034.66;;;20.24;41.48
44825;BME280;30542;47.928;2.138;2023-01-25T05:48:53;102026.16;;;20.27;42.21
44825;BME280;30542;47.928;2.138;2023-01-25T05:53:54;102034.19;;;20.27;41.50
44825;BME280;30542;47.928;2.138;2023-01-25T05:58:56;102030.47;;;20.28;41.57
44825;BME280;30542;47.928;2.138;2023-01-25T06:03:57;102039.34;;;20.28;41.21
44825;BME280;30542;47.928;2.138;2023-01-25T06:08:58;102039.56;;;20.27;41.42
44825;BME280;30542;47.928;2.138;2023-01-25T06:13:58;102041.78;;;20.30;41.39
44825;BME280;30542;47.928;2.138;2023-01-25T06:18:58;102036.19;;;20.31;41.44
44825;BME280;30542;47.928;2.138;2023-01-25T06:23:59;102036.19;;;20.31;41.39
44825;BME280;30542;47.928;2.138;2023-01-25T06:28:59;102031.47;;;20.33;41.49
44825;BME280;30542;47.928;2.138;2023-01-25T06:33:59;102019.94;;;20.33;41.24
44825;BME280;30542;47.928;2.138;2023-01-25T06:39:03;102027.72;;;20.34;41.17
44825;BME280;30542;47.928;2.138;2023-01-25T06:44:04;102034.72;;;20.35;41.30
44825;BME280;30542;47.928;2.138;2023-01-25T06:49:04;102027.50;;;20.36;41.30
44825;BME280;30542;47.928;2.138;2023-01-25T06:54:04;102026.47;;;20.37;41.14
44825;BME280;30542;47.928;2.138;2023-01-25T06:59:05;102029.81;;;20.32;41.03
44825;BME280;30542;47.928;2.138;2023-01-25T07:04:08;102038.38;;;20.41;40.68
44825;BME280;30542;47.928;2.138;2023-01-25T07:09:13;102042.44;;;20.44;41.17
44825;BME280;30542;47.928;2.138;2023-01-25T07:14:13;102041.03;;;20.41;40.57
44825;BME280;30542;47.928;2.138;2023-01-25T07:19:14;102049.06;;;20.41;40.85
44825;BME280;30542;47.928;2.138;2023-01-25T07:24:16;102043.44;;;20.49;41.59
44825;BME280;30542;47.928;2.138;2023-01-25T07:29:17;102044.47;;;20.48;41.79
44825;BME280;30542;47.928;2.138;2023-01-25T07:34:17;102041.47;;;20.56;42.11
44825;BME280;30542;47.928;2.138;2023-01-25T07:39:18;102045.81;;;20.57;42.54
44825;BME280;30542;47.928;2.138;2023-01-25T07:44:18;102038.00;;;20.56;42.37
44825;BME280;30542;47.928;2.138;2023-01-25T07:49:19;102040.47;;;20.57;42.27
44825;BME280;30542;47.928;2.138;2023-01-25T07:54:19;102039.84;;;20.55;42.38
44825;BME280;30542;47.928;2.138;2023-01-25T07:59:19;102038.66;;;20.51;42.26
44825;BME280;30542;47.928;2.138;2023-01-25T08:04:20;102032.75;;;20.49;42.25
44825;BME280;30542;47.928;2.138;2023-01-25T08:09:20;102030.06;;;20.49;43.37
44825;BME280;30542;47.928;2.138;2023-01-25T08:14:20;102020.31;;;20.55;44.05
44825;BME280;30542;47.928;2.138;2023-01-25T08:19:21;102025.41;;;20.56;43.92
44825;BME280;30542;47.928;2.138;2023-01-25T08:24:21;102029.28;;;20.60;43.51
44825;BME280;30542;47.928;2.138;2023-01-25T08:29:22;102022.31;;;20.59;43.25
44825;BME280;30542;47.928;2.138;2023-01-25T08:34:23;102025.22;;;20.58;43.05
44825;BME280;30542;47.928;2.138;2023-01-25T08:39:23;102020.75;;;20.52;43.05
44825;BME280;30542;47.928;2.138;2023-01-25T08:44:23;102026.03;;;20.58;43.12
44825;BME280;30542;47.928;2.138;2023-01-25T08:49:25;102022.31;;;20.59;43.40
44825;BME280;30542;47.928;2.138;2023-01-25T08:54:26;102024.97;;;20.59;43.16
44825;BME280;30542;47.928;2.138;2023-01-25T08:59:27;102019.03;;;20.57;42.64
44825;BME280;30542;47.928;2.138;2023-01-25T09:04:27;102021.13;;;20.55;42.83
44825;BME280;30542;47.928;2.138;2023-01-25T09:09:28;102017.63;;;20.55;42.80
44825;BME280;30542;47.928;2.138;2023-01-25T09:14:29;102023.22;;;20.53;42.52
44825;BME280;30542;47.928;2.138;2023-01-25T09:19:29;102016.00;;;20.54;42.63
44825;BME280;30542;47.928;2.138;2023-01-25T09:24:30;102026.72;;;20.54;42.43
44825;BME280;30542;47.928;2.138;2023-01-25T09:29:30;102023.41;;;20.52;42.51
44825;BME280;30542;47.928;2.138;2023-01-25T09:34:30;102026.47;;;20.55;42.58
44825;BME280;30542;47.928;2.138;2023-01-25T09:39:31;102021.13;;;20.55;42.36
44825;BME280;30542;47.928;2.138;2023-01-25T09:54:56;102014.81;;;20.50;42.20
44825;BME280;30542;47.928;2.138;2023-01-25T10:00:00;102003.34;;;20.43;42.54
44825;BME280;30542;47.928;2.138;2023-01-25T10:05:12;101987.53;;;20.23;42.65
44825;BME280;30542;47.928;2.138;2023-01-25T10:10:20;102015.25;;;20.28;42.50
44825;BME280;30542;47.928;2.138;2023-01-25T10:15:27;102015.47;;;20.27;42.41
44825;BME280;30542;47.928;2.138;2023-01-25T10:20:50;102015.47;;;20.27;42.55
44825;BME280;30542;47.928;2.138;2023-01-25T10:25:59;102013.41;;;20.29;42.30
44825;BME280;30542;47.928;2.138;2023-01-25T10:31:03;102003.50;;;20.29;42.49
44825;BME280;30542;47.928;2.138;2023-01-25T10:36:05;102005.06;;;20.37;42.03
44825;BME280;30542;47.928;2.138;2023-01-25T10:46:22;102005.78;;;20.44;42.13
44825;BME280;30542;47.928;2.138;2023-01-25T10:51:31;102003.88;;;20.51;41.98
44825;BME280;30542;47.928;2.138;2023-01-25T10:56:34;102000.75;;;20.54;42.24
44825;BME280;30542;47.928;2.138;2023-01-25T11:01:37;102002.38;;;20.55;42.00
44825;BME280;30542;47.928;2.138;2023-01-25T11:06:45;102005.88;;;20.56;41.90
44825;BME280;30542;47.928;2.138;2023-01-25T11:12:00;101993.28;;;20.56;42.00
44825;BME280;30542;47.928;2.138;2023-01-25T11:17:02;101991.47;;;20.57;42.19
44825;BME280;30542;47.928;2.138;2023-01-25T11:22:24;101982.16;;;20.59;42.90
44825;BME280;30542;47.928;2.138;2023-01-25T11:27:26;101971.81;;;20.63;43.22
44825;BME280;30542;47.928;2.138;2023-01-25T11:32:26;101965.19;;;20.66;43.70
44825;BME280;30542;47.928;2.138;2023-01-25T11:48:52;101940.25;;;20.65;44.23
44825;BME280;30542;47.928;2.138;2023-01-25T11:59:45;101910.91;;;20.58;44.25
44825;BME280;30542;47.928;2.138;2023-01-25T12:16:13;101880.53;;;20.53;43.48
44825;BME280;30542;47.928;2.138;2023-01-25T12:31:41;101857.13;;;20.60;43.18
44825;BME280;30542;47.928;2.138;2023-01-25T12:36:47;101836.78;;;20.59;43.29
44825;BME280;30542;47.928;2.138;2023-01-25T12:47:21;101808.25;;;20.65;43.15
44825;BME280;30542;47.928;2.138;2023-01-25T12:52:35;101800.00;;;20.66;43.27
44825;BME280;30542;47.928;2.138;2023-01-25T12:58:00;101795.47;;;20.67;43.12
44825;BME280;30542;47.928;2.138;2023-01-25T13:03:10;101791.72;;;20.68;43.27
44825;BME280;30542;47.928;2.138;2023-01-25T13:13:37;101785.31;;;20.69;43.23
44825;BME280;30542;47.928;2.138;2023-01-25T13:18:39;101778.22;;;20.63;43.07
44825;BME280;30542;47.928;2.138;2023-01-25T13:23:43;101763.78;;;20.64;43.17
44825;BME280;30542;47.928;2.138;2023-01-25T13:28:49;101759.84;;;20.66;43.31
44825;BME280;30542;47.928;2.138;2023-01-25T13:33:50;101737.03;;;20.64;43.46
44825;BME280;30542;47.928;2.138;2023-01-25T13:38:50;101733.63;;;20.68;43.26
44825;BME280;30542;47.928;2.138;2023-01-25T13:43:54;101717.13;;;20.59;43.40
44825;BME280;30542;47.928;2.138;2023-01-25T13:49:17;101718.97;;;20.71;43.50
44825;BME280;30542;47.928;2.138;2023-01-25T13:54:20;101721.66;;;20.71;43.54
44825;BME280;30542;47.928;2.138;2023-01-25T13:59:25;101715.50;;;20.70;43.75
44825;BME280;30542;47.928;2.138;2023-01-25T14:04:27;101710.94;;;20.71;43.71
44825;BME280;30542;47.928;2.138;2023-01-25T14:09:28;101709.78;;;20.67;43.84
44825;BME280;30542;47.928;2.138;2023-01-25T14:14:33;101717.22;;;20.65;43.78
44825;BME280;30542;47.928;2.138;2023-01-25T14:19:35;101720.50;;;20.67;43.69
44825;BME280;30542;47.928;2.138;2023-01-25T14:24:37;101708.97;;;20.66;43.54
44825;BME280;30542;47.928;2.138;2023-01-25T14:29:38;101708.16;;;20.66;43.55
44825;BME280;30542;47.928;2.138;2023-01-25T14:34:38;101711.88;;;20.65;43.29
44825;BME280;30542;47.928;2.138;2023-01-25T14:39:39;101722.72;;;20.58;43.26
44825;BME280;30542;47.928;2.138;2023-01-25T14:44:39;101710.50;;;20.50;43.19
44825;BME280;30542;47.928;2.138;2023-01-25T14:49:40;101709.44;;;20.51;44.09
44825;BME280;30542;47.928;2.138;2023-01-25T14:54:52;101699.19;;;20.48;44.60
44825;BME280;30542;47.928;2.138;2023-01-25T14:59:54;101706.38;;;20.48;45.10
44825;BME280;30542;47.928;2.138;2023-01-25T15:05:15;101696.97;;;20.45;45.45
44825;BME280;30542;47.928;2.138;2023-01-25T15:10:26;101703.88;;;20.53;45.47
44825;BME280;30542;47.928;2.138;2023-01-25T15:15:31;101704.69;;;20.53;45.70
44825;BME280;30542;47.928;2.138;2023-01-25T15:20:38;101701.75;;;20.55;45.65
44825;BME280;30542;47.928;2.138;2023-01-25T15:25:58;101708.75;;;20.56;45.96
44825;BME280;30542;47.928;2.138;2023-01-25T15:30:59;101710.38;;;20.57;45.99
44825;BME280;30542;47.928;2.138;2023-01-25T15:36:00;101705.84;;;20.57;45.96
44825;BME280;30542;47.928;2.138;2023-01-25T15:41:00;101704.78;;;20.58;45.95
44825;BME280;30542;47.928;2.138;2023-01-25T15:46:02;101688.13;;;20.56;45.95
44825;BME280;30542;47.928;2.138;2023-01-25T15:51:04;101700.25;;;20.59;45.81
44825;BME280;30542;47.928;2.138;2023-01-25T15:56:08;101700.00;;;20.60;45.81
44825;BME280;30542;47.928;2.138;2023-01-25T16:01:11;101701.88;;;20.60;45.83
44825;BME280;30542;47.928;2.138;2023-01-25T16:11:30;101713.16;;;20.62;45.73
44825;BME280;30542;47.928;2.138;2023-01-25T16:16:30;101715.84;;;20.62;45.55
44825;BME280;30542;47.928;2.138;2023-01-25T16:21:32;101709.91;;;20.60;44.99
44825;BME280;30542;47.928;2.138;2023-01-25T16:26:33;101710.59;;;20.55;45.11
44825;BME280;30542;47.928;2.138;2023-01-25T16:31:35;101712.13;;;20.51;45.04
44825;BME280;30542;47.928;2.138;2023-01-25T16:36:36;101704.75;;;20.47;45.10
44825;BME280;30542;47.928;2.138;2023-01-25T16:41:36;101707.69;;;20.45;45.09
44825;BME280;30542;47.928;2.138;2023-01-25T16:46:37;101705.22;;;20.44;45.23
44825;BME280;30542;47.928;2.138;2023-01-25T16:51:37;101700.09;;;20.42;45.13
44825;BME280;30542;47.928;2.138;2023-01-25T16:56:37;101714.53;;;20.41;45.19
44825;BME280;30542;47.928;2.138;2023-01-25T17:01:38;101716.41;;;20.41;44.81
44825;BME280;30542;47.928;2.138;2023-01-25T17:06:43;101723.84;;;20.39;44.92
44825;BME280;30542;47.928;2.138;2023-01-25T17:11:44;101723.38;;;20.42;45.06
44825;BME280;30542;47.928;2.138;2023-01-25T17:16:46;101722.09;;;20.44;44.70
44825;BME280;30542;47.928;2.138;2023-01-25T17:21:47;101715.72;;;20.45;44.88
44825;BME280;30542;47.928;2.138;2023-01-25T17:26:47;101702.06;;;20.35;44.62
44825;BME280;30542;47.928;2.138;2023-01-25T17:31:48;101726.63;;;20.44;44.96
44825;BME280;30542;47.928;2.138;2023-01-25T17:36:49;101716.06;;;20.37;44.95
44825;BME280;30542;47.928;2.138;2023-01-25T17:41:50;101712.22;;;20.33;45.02
44825;BME280;30542;47.928;2.138;2023-01-25T17:46:51;101717.31;;;20.34;44.61
44825;BME280;30542;47.928;2.138;2023-01-25T17:51:52;101717.69;;;20.38;44.46
44825;BME280;30542;47.928;2.138;2023-01-25T17:56:52;101719.66;;;20.43;44.35
44825;BME280;30542;47.928;2.138;2023-01-25T18:01:54;101699.06;;;20.43;44.40
44825;BME280;30542;47.928;2.138;2023-01-25T18:06:54;101701.16;;;20.41;44.04
44825;BME280;30542;47.928;2.138;2023-01-25T18:11:54;101696.63;;;20.42;44.22
44825;BME280;30542;47.928;2.138;2023-01-25T18:16:55;101706.19;;;20.49;44.00
44825;BME280;30542;47.928;2.138;2023-01-25T18:21:55;101703.63;;;20.54;44.00
44825;BME280;30542;47.928;2.138;2023-01-25T18:27:06;101700.50;;;20.57;43.95
44825;BME280;30542;47.928;2.138;2023-01-25T18:32:07;101699.69;;;20.57;43.93
44825;BME280;30542;47.928;2.138;2023-01-25T18:37:07;101700.25;;;20.59;44.06
44825;BME280;30542;47.928;2.138;2023-01-25T18:42:22;101708.63;;;20.63;43.71
44825;BME280;30542;47.928;2.138;2023-01-25T18:47:23;101691.41;;;20.58;43.83
44825;BME280;30542;47.928;2.138;2023-01-25T18:52:23;101708.38;;;20.64;43.84
44825;BME280;30542;47.928;2.138;2023-01-25T18:57:24;101712.38;;;20.62;43.58
44825;BME280;30542;47.928;2.138;2023-01-25T19:02:25;101706.41;;;20.59;43.79
44825;BME280;30542;47.928;2.138;2023-01-25T19:07:26;101691.41;;;20.58;43.68
44825;BME280;30542;47.928;2.138;2023-01-25T19:12:26;101694.09;;;20.58;43.62
44825;BME280;30542;47.928;2.138;2023-01-25T19:17:26;101686.06;;;20.58;43.64
44825;BME280;30542;47.928;2.138;2023-01-25T19:22:27;101678.03;;;20.58;43.64
44825;BME280;30542;47.928;2.138;2023-01-25T19:27:28;101666.72;;;20.56;43.43
44825;BME280;30542;47.928;2.138;2023-01-25T19:32:28;101659.53;;;20.57;43.53
44825;BME280;30542;47.928;2.138;2023-01-25T19:37:29;101646.16;;;20.57;43.27
44825;BME280;30542;47.928;2.138;2023-01-25T19:42:29;101632.97;;;20.55;43.16
44825;BME280;30542;47.928;2.138;2023-01-25T19:47:29;101625.19;;;20.54;43.36
44825;BME280;30542;47.928;2.138;2023-01-25T19:52:30;101611.34;;;20.57;43.17
44825;BME280;30542;47.928;2.138;2023-01-25T19:57:30;101583.63;;;20.51;43.23
44825;BME280;30542;47.928;2.138;2023-01-25T20:02:31;101588.63;;;20.59;43.13
44825;BME280;30542;47.928;2.138;2023-01-25T20:07:32;101579.53;;;20.60;43.03
44825;BME280;30542;47.928;2.138;2023-01-25T20:12:32;101560.00;;;20.60;42.95
44825;BME280;30542;47.928;2.138;2023-01-25T20:17:33;101540.81;;;20.51;43.07
44825;BME280;30542;47.928;2.138;2023-01-25T20:22:33;101549.53;;;20.58;42.92
44825;BME280;30542;47.928;2.138;2023-01-25T20:27:34;101552.22;;;20.58;42.79
44825;BME280;30542;47.928;2.138;2023-01-25T20:32:35;101535.94;;;20.48;42.93
44825;BME280;30542;47.928;2.138;2023-01-25T20:37:35;101548.94;;;20.56;42.81
44825;BME280;30542;47.928;2.138;2023-01-25T20:42:35;101542.56;;;20.57;43.05
44825;BME280;30542;47.928;2.138;2023-01-25T20:47:36;101525.44;;;20.58;42.80
44825;BME280;30542;47.928;2.138;2023-01-25T20:52:36;101503.22;;;20.58;42.55
44825;BME280;30542;47.928;2.138;2023-01-25T20:57:37;101484.13;;;20.54;42.65
44825;BME280;30542;47.928;2.138;2023-01-25T21:02:37;101485.53;;;20.57;42.55
44825;BME280;30542;47.928;2.138;2023-01-25T21:07:38;101484.69;;;20.56;42.41
44825;BME280;30542;47.928;2.138;2023-01-25T21:12:38;101476.66;;;20.56;42.41
44825;BME280;30542;47.928;2.138;2023-01-25T21:17:39;101460.78;;;20.50;42.24
44825;BME280;30542;47.928;2.138;2023-01-25T21:22:39;101467.84;;;20.56;42.42
44825;BME280;30542;47.928;2.138;2023-01-25T21:27:40;101465.88;;;20.51;42.69
44825;BME280;30542;47.928;2.138;2023-01-25T21:32:40;101462.75;;;20.43;42.70
44825;BME280;30542;47.928;2.138;2023-01-25T21:37:42;101438.56;;;20.38;42.46
44825;BME280;30542;47.928;2.138;2023-01-25T21:42:46;101438.19;;;20.46;42.66
44825;BME280;30542;47.928;2.138;2023-01-25T21:47:46;101438.41;;;20.44;42.65
44825;BME280;30542;47.928;2.138;2023-01-25T21:52:46;101428.91;;;20.36;42.92
44825;BME280;30542;47.928;2.138;2023-01-25T21:57:47;101435.47;;;20.29;43.06
44825;BME280;30542;47.928;2.138;2023-01-25T22:02:49;101429.44;;;20.22;43.15
44825;BME280;30542;47.928;2.138;2023-01-25T22:07:50;101413.50;;;20.15;42.97
44825;BME280;30542;47.928;2.138;2023-01-25T22:12:50;101416.44;;;20.14;42.85
44825;BME280;30542;47.928;2.138;2023-01-25T22:17:50;101383.00;;;19.99;43.08
44825;BME280;30542;47.928;2.138;2023-01-25T22:22:51;101401.81;;;20.04;43.04
44825;BME280;30542;47.928;2.138;2023-01-25T22:27:58;101394.72;;;19.98;43.05
44825;BME280;30542;47.928;2.138;2023-01-25T22:32:58;101405.34;;;19.93;42.64
44825;BME280;30542;47.928;2.138;2023-01-25T22:37:59;101412.44;;;19.88;42.76
44825;BME280;30542;47.928;2.138;2023-01-25T22:43:00;101404.44;;;19.76;42.85
44825;BME280;30542;47.928;2.138;2023-01-25T22:48:00;101423.72;;;19.78;42.97
44825;BME280;30542;47.928;2.138;2023-01-25T22:53:01;101437.78;;;19.73;42.78
44825;BME280;30542;47.928;2.138;2023-01-25T22:58:01;101412.22;;;19.66;42.81
44825;BME280;30542;47.928;2.138;2023-01-25T23:03:03;101423.63;;;19.61;42.65
44825;BME280;30542;47.928;2.138;2023-01-25T23:08:03;101427.78;;;19.57;42.85
44825;BME280;30542;47.928;2.138;2023-01-25T23:13:04;101416.28;;;19.45;42.63
44825;BME280;30542;47.928;2.138;2023-01-25T23:18:04;101405.03;;;19.43;42.62
44825;BME280;30542;47.928;2.138;2023-01-25T23:23:23;101402.47;;;19.36;42.83
44825;BME280;30542;47.928;2.138;2023-01-25T23:28:23;101325.72;;;18.84;42.82
44825;BME280;30542;47.928;2.138;2023-01-25T23:33:23;101362.28;;;19.19;42.90
44825;BME280;30542;47.928;2.138;2023-01-25T23:38:24;101368.78;;;19.23;42.87
44825;BME280;30542;47.928;2.138;2023-01-25T23:43:24;101354.28;;;19.19;42.78
44825;BME280;30542;47.928;2.138;2023-01-25T23:48:25;101332.09;;;19.07;42.68
44825;BME280;30542;47.928;2.138;2023-01-25T23:53:26;101341.88;;;19.13;42.61
44825;BME280;30542;47.928;2.138;2023-01-25T23:58:27;101331.41;;;19.11;42.80
